Time;durP1;ratioP1;P1;durP2;ratioP2;P2;SDS_P1;SDS_P2;PMS_P1;PMS_P2;Temp;Humidity;BMP_temperature;BMP_pressure;BME280_temperature;BME280_humidity;BME280_pressure;Samples;Min_cycle;Max_cycle;Signal;HPM_P1;HPM_P2
2022/08/22 00:02:04;;;;;;;9.68;4.43;;;19.60;99.90;;;;;;5066665;28;19908;-79
2022/08/22 00:04:29;;;;;;;;;;;19.60;99.90;;;;;;5066630;28;20599;-79
2022/08/22 00:07:02;;;;;;;10.40;3.83;;;19.60;99.90;;;;;;5065231;28;19908;-80
2022/08/22 00:09:40;;;;;;;11.35;4.78;;;19.60;99.90;;;;;;5065292;28;20065;-81
2022/08/22 00:12:11;;;;;;;16.90;5.45;;;19.60;99.90;;;;;;5066100;28;20103;-79
2022/08/22 00:14:55;;;;;;;10.38;4.53;;;19.60;99.90;;;;;;5065124;28;20025;-81
2022/08/22 00:17:39;;;;;;;10.75;4.03;;;19.60;99.90;;;;;;5065160;28;20032;-80
2022/08/22 00:20:37;;;;;;;13.25;4.20;;;19.60;99.90;;;;;;5065629;28;20028;-82
2022/08/22 00:23:24;;;;;;;17.92;5.30;;;19.60;99.90;;;;;;5065391;28;20036;-83
2022/08/22 00:26:20;;;;;;;8.75;4.10;;;19.60;99.90;;;;;;5066547;28;20509;-82
2022/08/22 00:28:52;;;;;;;16.38;3.97;;;19.60;99.90;;;;;;5049216;28;20036;-82
2022/08/22 00:31:24;;;;;;;9.88;4.07;;;19.60;99.90;;;;;;5066663;28;20098;-82
2022/08/22 00:34:12;;;;;;;14.05;3.55;;;19.60;99.90;;;;;;5066510;28;20422;-82
2022/08/22 00:36:51;;;;;;;8.20;3.83;;;19.50;99.90;;;;;;5068218;28;20032;-82
2022/08/22 00:39:16;;;;;;;9.07;3.33;;;19.50;99.90;;;;;;5065539;28;20031;-82
2022/08/22 00:42:08;;;;;;;8.55;3.67;;;19.50;99.90;;;;;;5065627;28;20032;-82
2022/08/22 00:44:48;;;;;;;7.40;4.10;;;19.60;99.90;;;;;;5065687;28;20496;-82
2022/08/22 00:47:28;;;;;;;9.07;3.88;;;19.60;99.90;;;;;;5074962;28;20115;-82
2022/08/22 00:50:39;;;;;;;11.95;4.40;;;19.60;99.90;;;;;;5086866;28;20028;-81
2022/08/22 00:53:41;;;;;;;14.00;3.47;;;19.60;99.90;;;;;;5086394;28;20094;-83
2022/08/22 00:56:34;;;;;;;14.65;3.40;;;19.70;99.90;;;;;;5071485;28;20449;-80
2022/08/22 00:59:09;;;;;;;9.95;3.22;;;19.70;99.90;;;;;;5065417;28;20029;-80
2022/08/22 01:01:52;;;;;;;17.75;5.20;;;19.60;99.90;;;;;;5065369;28;20123;-82
2022/08/22 01:04:32;;;;;;;12.45;3.55;;;19.60;99.90;;;;;;5064870;28;20040;-82
2022/08/22 01:07:10;;;;;;;14.90;3.72;;;19.60;99.90;;;;;;5065657;28;20668;-81
2022/08/22 01:10:03;;;;;;;16.58;4.40;;;19.60;99.90;;;;;;5084656;28;20028;-81
2022/08/22 01:12:40;;;;;;;11.68;3.50;;;19.60;99.90;;;;;;5084852;28;20036;-81
2022/08/22 01:15:12;;;;;;;8.60;3.53;;;19.50;99.90;;;;;;5078697;28;20032;-81
2022/08/22 01:18:13;;;;;;;15.85;3.40;;;19.50;99.90;;;;;;5066251;28;20024;-81
2022/08/22 01:21:24;;;;;;;16.90;3.85;;;19.50;99.90;;;;;;5059880;28;20033;-81
2022/08/22 01:24:05;;;;;;;13.30;4.13;;;19.50;99.90;;;;;;5064521;28;20028;-82
2022/08/22 01:26:49;;;;;;;12.23;3.33;;;19.50;99.90;;;;;;5065096;28;20028;-81
2022/08/22 01:29:54;;;;;;;10.05;4.00;;;19.50;99.90;;;;;;5064738;28;20028;-80
2022/08/22 01:32:38;;;;;;;15.35;4.68;;;19.50;99.90;;;;;;5068363;28;20132;-80
2022/08/22 01:35:30;;;;;;;17.83;4.13;;;19.40;99.90;;;;;;5068202;28;20039;-81
2022/08/22 01:38:33;;;;;;;11.27;3.50;;;19.40;99.90;;;;;;5067422;28;20378;-81
2022/08/22 01:41:19;;;;;;;8.45;4.35;;;19.50;99.90;;;;;;5047595;28;20074;-82
2022/08/22 01:44:12;;;;;;;8.85;3.60;;;19.40;99.90;;;;;;5068687;28;20304;-82
2022/08/22 01:46:55;;;;;;;10.63;3.80;;;19.50;99.90;;;;;;5069319;28;20025;-81
2022/08/22 01:49:33;;;;;;;8.27;4.05;;;19.50;99.90;;;;;;5068538;28;20064;-82
2022/08/22 01:52:08;;;;;;;8.57;4.03;;;19.50;99.90;;;;;;5067761;28;20032;-81
2022/08/22 01:55:17;;;;;;;8.38;3.83;;;19.60;99.90;;;;;;5067481;28;21527;-80
2022/08/22 01:57:55;;;;;;;10.02;3.53;;;19.60;99.90;;;;;;5032671;28;20034;-82
2022/08/22 02:00:24;;;;;;;7.85;3.47;;;19.60;99.90;;;;;;5068492;28;20093;-82
2022/08/22 02:03:12;;;;;;;12.32;3.88;;;19.70;99.90;;;;;;5073431;28;20035;-81
2022/08/22 02:06:02;;;;;;;9.60;3.63;;;19.70;99.90;;;;;;5088301;28;20035;-83
2022/08/22 02:08:50;;;;;;;8.88;4.28;;;19.70;99.90;;;;;;5074582;28;20033;-82
2022/08/22 02:11:37;;;;;;;11.68;4.30;;;19.70;99.90;;;;;;5067593;28;20118;-81
2022/08/22 02:14:13;;;;;;;10.30;4.13;;;19.70;99.90;;;;;;5067945;28;20481;-80
2022/08/22 02:16:47;;;;;;;12.38;3.83;;;19.70;99.90;;;;;;5068381;28;20107;-80
2022/08/22 02:19:15;;;;;;;5.85;3.50;;;19.70;99.90;;;;;;5069137;28;20558;-82
2022/08/22 02:22:02;;;;;;;10.13;4.22;;;19.60;99.90;;;;;;5068618;28;20025;-80
2022/08/22 02:24:37;;;;;;;;;;;19.70;99.90;;;;;;5067562;28;20393;-79
2022/08/22 02:27:15;;;;;;;8.43;4.05;;;19.70;99.90;;;;;;5067391;28;19908;-80
2022/08/22 02:30:03;;;;;;;8.60;3.85;;;19.70;99.90;;;;;;5066747;28;20074;-81
2022/08/22 02:32:36;;;;;;;10.88;4.43;;;19.70;99.90;;;;;;5066472;28;20041;-80
2022/08/22 02:35:22;;;;;;;11.38;3.90;;;19.70;99.90;;;;;;5066781;28;20154;-80
2022/08/22 02:38:24;;;;;;;8.95;4.18;;;19.70;99.90;;;;;;5067144;28;20029;-78
2022/08/22 02:41:15;;;;;;;12.05;3.78;;;19.70;99.90;;;;;;5068207;28;20641;-79
2022/08/22 02:44:20;;;;;;;14.27;4.15;;;19.70;99.90;;;;;;5067864;28;20028;-80
2022/08/22 02:46:50;;;;;;;12.38;4.03;;;19.60;99.90;;;;;;5066519;28;20071;-79
2022/08/22 02:49:26;;;;;;;12.23;4.28;;;19.60;99.90;;;;;;5066541;28;20066;-80
2022/08/22 02:52:02;;;;;;;13.02;3.90;;;19.60;99.90;;;;;;5067966;28;20028;-80
2022/08/22 02:54:30;;;;;;;16.00;5.30;;;19.60;99.90;;;;;;5066155;28;20058;-79
2022/08/22 02:57:04;;;;;;;14.93;4.60;;;19.70;99.90;;;;;;5067690;28;20194;-79
2022/08/22 02:59:32;;;;;;;13.23;4.43;;;19.70;99.90;;;;;;5066302;28;20071;-79
2022/08/22 03:02:26;;;;;;;18.20;4.80;;;19.60;99.90;;;;;;5067908;28;20031;-79
2022/08/22 03:04:58;;;;;;;8.27;3.55;;;19.60;99.90;;;;;;5066242;28;20345;-81
2022/08/22 03:07:42;;;;;;;11.43;4.40;;;19.70;99.90;;;;;;5066275;28;20214;-81
2022/08/22 03:10:22;;;;;;;13.48;4.43;;;19.70;99.90;;;;;;5066696;28;20064;-80
2022/08/22 03:13:31;;;;;;;9.82;4.43;;;19.60;99.90;;;;;;5066671;28;20090;-81
2022/08/22 03:16:08;;;;;;;14.95;3.88;;;19.70;99.90;;;;;;5065879;28;20041;-81
2022/08/22 03:19:05;;;;;;;10.75;4.07;;;19.70;99.90;;;;;;5066662;28;20033;-82
2022/08/22 03:21:41;;;;;;;7.65;3.92;;;19.70;99.90;;;;;;5068007;28;20033;-81
2022/08/22 03:24:23;;;;;;;10.40;3.85;;;19.70;99.90;;;;;;5067323;28;20426;-79
2022/08/22 03:27:30;;;;;;;7.95;4.25;;;19.80;99.90;;;;;;5067226;28;20062;-81
2022/08/22 03:30:19;;;;;;;9.55;4.20;;;19.70;99.90;;;;;;5019264;28;20092;-81
2022/08/22 03:33:14;;;;;;;6.47;3.95;;;19.70;99.90;;;;;;4994516;28;20045;-81
2022/08/22 03:35:45;;;;;;;9.68;4.85;;;19.70;99.90;;;;;;5035200;28;20112;-81
2022/08/22 03:38:30;;;;;;;8.75;4.53;;;19.70;99.90;;;;;;5047343;28;20035;-81
2022/08/22 03:41:23;;;;;;;5.28;3.70;;;19.70;99.90;;;;;;5046275;28;20029;-80
2022/08/22 03:43:58;;;;;;;5.88;3.67;;;19.70;99.90;;;;;;5045961;28;20130;-81
2022/08/22 03:46:56;;;;;;;10.20;4.45;;;19.60;99.90;;;;;;5046174;28;20040;-81
2022/08/22 03:49:43;;;;;;;9.50;4.68;;;19.60;99.90;;;;;;5057300;28;20033;-81
2022/08/22 03:53:08;;;;;;;10.45;4.45;;;19.70;99.90;;;;;;5066112;28;20031;-82
2022/08/22 03:56:02;;;;;;;9.27;4.00;;;19.70;99.90;;;;;;5067267;28;20036;-82
2022/08/22 03:58:58;;;;;;;8.70;4.18;;;19.60;99.90;;;;;;5069268;28;20626;-79
2022/08/22 04:02:02;;;;;;;6.95;4.35;;;19.70;99.90;;;;;;5066463;28;20028;-79
2022/08/22 04:04:59;;;;;;;9.00;4.22;;;19.70;99.90;;;;;;5065796;28;20451;-79
2022/08/22 04:07:25;;;;;;;10.80;4.55;;;19.70;99.90;;;;;;5067750;28;20051;-80
2022/08/22 04:10:13;;;;;;;6.95;4.43;;;19.60;99.90;;;;;;5066470;28;20032;-80
2022/08/22 04:12:41;;;;;;;11.32;4.97;;;19.70;99.90;;;;;;5067220;28;20049;-83
2022/08/22 04:15:25;;;;;;;11.27;4.90;;;19.70;99.90;;;;;;5067331;28;20097;-82
2022/08/22 04:18:35;;;;;;;10.30;5.30;;;19.70;99.90;;;;;;5066213;28;20522;-80
2022/08/22 04:21:22;;;;;;;11.10;4.72;;;19.70;99.90;;;;;;5045963;28;20082;-81
2022/08/22 04:24:05;;;;;;;9.50;5.10;;;19.70;99.90;;;;;;5065505;28;20025;-81
2022/08/22 04:26:54;;;;;;;8.50;4.88;;;19.70;99.90;;;;;;5066183;28;20025;-80
2022/08/22 04:29:22;;;;;;;10.43;5.75;;;19.80;99.90;;;;;;5065072;28;20210;-81
2022/08/22 04:32:13;;;;;;;6.43;5.03;;;19.80;99.90;;;;;;5065343;28;20087;-81
2022/08/22 04:34:50;;;;;;;11.77;5.18;;;19.90;99.90;;;;;;5066630;28;20679;-81
2022/08/22 04:37:39;;;;;;;9.55;4.85;;;19.90;99.90;;;;;;5066789;28;20025;-81
2022/08/22 04:40:27;;;;;;;7.57;4.55;;;19.90;99.90;;;;;;5065954;28;20435;-81
2022/08/22 04:43:02;;;;;;;7.60;4.95;;;19.90;99.90;;;;;;5064592;28;20060;-81
2022/08/22 04:45:40;;;;;;;14.55;5.70;;;19.90;99.90;;;;;;5065366;28;20035;-81
2022/08/22 04:48:17;;;;;;;13.38;6.00;;;20.00;99.90;;;;;;5066954;28;20020;-81
2022/08/22 04:50:49;;;;;;;10.93;5.72;;;20.00;99.90;;;;;;5066467;28;20021;-81
2022/08/22 04:53:26;;;;;;;18.40;5.82;;;20.00;99.90;;;;;;5065284;28;20151;-81
2022/08/22 04:56:05;;;;;;;14.60;6.10;;;20.10;99.90;;;;;;5064095;28;20017;-80
2022/08/22 04:58:57;;;;;;;9.85;5.78;;;20.10;99.90;;;;;;5064062;28;20158;-80
2022/08/22 05:01:53;;;;;;;10.68;5.63;;;20.20;99.90;;;;;;5065251;28;20445;-80
2022/08/22 05:04:45;;;;;;;12.93;6.07;;;20.30;99.90;;;;;;5059165;28;20090;-81
2022/08/22 05:07:16;;;;;;;10.25;6.00;;;20.30;99.90;;;;;;5066713;28;20124;-81
2022/08/22 05:09:49;;;;;;;15.55;6.22;;;20.40;99.90;;;;;;5068322;28;20032;-80
2022/08/22 05:12:24;;;;;;;11.30;6.57;;;20.50;99.90;;;;;;5068648;28;20048;-81
2022/08/22 05:14:55;;;;;;;9.40;5.88;;;20.60;99.90;;;;;;5068142;28;20113;-80
2022/08/22 05:17:25;;;;;;;9.85;6.00;;;20.70;99.90;;;;;;5068851;28;20130;-78
2022/08/22 05:19:56;;;;;;;15.50;7.72;;;20.70;99.90;;;;;;5067628;28;20414;-81
2022/08/22 05:22:40;;;;;;;13.73;6.05;;;20.80;99.90;;;;;;5067549;28;20032;-81
2022/08/22 05:25:10;;;;;;;10.45;6.05;;;20.80;99.90;;;;;;5068182;28;20548;-81
2022/08/22 05:27:44;;;;;;;16.35;7.28;;;20.90;99.90;;;;;;5068328;28;20071;-80
2022/08/22 05:30:20;;;;;;;13.30;6.70;;;20.90;99.90;;;;;;5067642;28;20095;-80
2022/08/22 05:32:51;;;;;;;20.75;7.00;;;20.90;99.90;;;;;;5070305;28;20040;-83
2022/08/22 05:35:22;;;;;;;11.80;6.72;;;20.90;99.90;;;;;;5069030;28;20062;-83
2022/08/22 05:37:53;;;;;;;10.82;7.07;;;20.90;99.90;;;;;;5069921;28;20029;-82
2022/08/22 05:40:25;;;;;;;11.05;5.28;;;20.80;99.90;;;;;;5068739;28;20505;-83
2022/08/22 05:42:53;;;;;;;15.23;7.30;;;20.80;99.90;;;;;;5069002;28;20400;-82
2022/08/22 05:45:20;;;;;;;12.38;7.45;;;20.80;99.90;;;;;;5068929;28;20485;-83
2022/08/22 05:47:53;;;;;;;14.57;6.15;;;20.80;99.90;;;;;;5069359;28;20340;-84
2022/08/22 05:50:28;;;;;;;19.70;7.13;;;20.80;99.90;;;;;;5068906;28;20035;-83
2022/08/22 05:53:20;;;;;;;15.52;7.20;;;20.70;99.90;;;;;;5069003;28;20038;-84
2022/08/22 05:56:01;;;;;;;12.52;6.55;;;20.70;99.90;;;;;;5069148;28;20028;-82
2022/08/22 05:58:58;;;;;;;11.98;7.40;;;20.70;99.90;;;;;;5068936;28;20093;-82
2022/08/22 06:01:36;;;;;;;;;;;20.60;99.90;;;;;;5067353;28;20029;-82
2022/08/22 06:04:05;;;;;;;11.32;7.13;;;20.60;99.90;;;;;;5068870;28;20865;-80
2022/08/22 06:06:39;;;;;;;14.68;7.65;;;20.60;99.90;;;;;;5067279;28;20038;-82
2022/08/22 06:09:18;;;;;;;9.95;7.10;;;20.80;99.90;;;;;;5069523;28;20425;-82
2022/08/22 06:12:10;;;;;;;16.95;9.20;;;21.00;99.90;;;;;;5067970;28;20077;-81
2022/08/22 06:14:53;;;;;;;15.32;8.23;;;21.20;99.90;;;;;;5068748;28;20040;-82
2022/08/22 06:17:24;;;;;;;17.60;8.48;;;21.40;99.90;;;;;;5067666;28;20032;-82
2022/08/22 06:19:52;;;;;;;15.02;9.43;;;21.50;99.90;;;;;;5067460;28;20063;-82
2022/08/22 06:22:23;;;;;;;14.18;9.80;;;21.70;99.90;;;;;;5067394;28;20029;-83
2022/08/22 06:24:51;;;;;;;19.48;9.77;;;21.80;99.90;;;;;;5066323;28;20075;-84
2022/08/22 06:27:21;;;;;;;20.20;10.00;;;21.80;99.90;;;;;;5056378;28;20035;-81
2022/08/22 06:29:53;;;;;;;16.67;9.27;;;21.80;99.90;;;;;;5064704;28;20041;-83
2022/08/22 06:32:40;;;;;;;13.55;8.88;;;21.70;99.90;;;;;;5063265;28;20048;-82
2022/08/22 06:35:28;;;;;;;22.08;10.27;;;21.70;99.90;;;;;;5064456;28;20493;-82
2022/08/22 06:37:58;;;;;;;12.68;9.40;;;21.70;99.90;;;;;;5063944;28;20040;-83
2022/08/22 06:40:27;;;;;;;18.83;9.93;;;21.70;99.90;;;;;;5066758;28;20029;-80
2022/08/22 06:42:55;;;;;;;19.75;8.52;;;21.70;99.90;;;;;;5067741;28;20195;-82
2022/08/22 06:45:28;;;;;;;15.32;9.23;;;21.80;99.90;;;;;;5062226;28;20442;-81
2022/08/22 06:47:58;;;;;;;11.10;8.93;;;21.70;99.90;;;;;;5046637;28;20032;-83
2022/08/22 06:50:36;;;;;;;18.50;11.10;;;21.90;99.90;;;;;;5049073;28;20096;-85
2022/08/22 06:53:22;;;;;;;17.83;11.55;;;22.20;99.90;;;;;;5067959;28;20035;-83
2022/08/22 06:55:54;;;;;;;15.98;10.75;;;22.50;99.90;;;;;;5067350;28;20032;-82
2022/08/22 06:58:33;;;;;;;19.92;11.80;;;22.50;99.90;;;;;;5067641;28;20040;-81
2022/08/22 07:01:05;;;;;;;17.67;11.45;;;22.50;99.90;;;;;;5067069;28;20500;-82
2022/08/22 07:03:43;;;;;;;15.95;11.70;;;22.40;99.90;;;;;;5066601;28;20017;-82
2022/08/22 07:06:14;;;;;;;17.63;12.15;;;22.30;99.90;;;;;;5067921;28;20036;-82
2022/08/22 07:08:41;;;;;;;20.40;12.10;;;22.20;99.90;;;;;;5066499;28;20532;-82
2022/08/22 07:11:22;;;;;;;20.30;12.60;;;22.00;99.90;;;;;;5067813;28;20025;-79
2022/08/22 07:13:54;;;;;;;18.67;12.52;;;22.00;99.90;;;;;;5066068;28;20032;-82
2022/08/22 07:16:31;;;;;;;22.52;13.20;;;21.90;99.90;;;;;;5066407;28;20043;-82
2022/08/22 07:18:58;;;;;;;23.45;13.57;;;21.80;99.90;;;;;;5065930;28;20573;-81
2022/08/22 07:21:40;;;;;;;18.67;13.35;;;21.70;99.90;;;;;;5067088;28;20512;-80
2022/08/22 07:24:07;;;;;;;17.25;12.07;;;21.70;99.90;;;;;;5065649;28;20078;-82
2022/08/22 07:26:45;;;;;;;18.95;12.48;;;21.60;99.90;;;;;;5065978;28;20162;-81
2022/08/22 07:29:22;;;;;;;20.95;14.15;;;21.60;99.90;;;;;;5066225;28;20029;-80
2022/08/22 07:31:58;;;;;;;19.65;13.52;;;21.60;99.90;;;;;;5065280;28;20386;-81
2022/08/22 07:35:01;;;;;;;16.50;14.37;;;21.70;99.90;;;;;;5065954;28;20045;-81
2022/08/22 07:37:45;;;;;;;19.88;13.57;;;21.70;99.90;;;;;;5065091;28;20020;-82
2022/08/22 07:40:38;;;;;;;22.95;14.77;;;21.90;99.90;;;;;;5064972;28;20115;-81
2022/08/22 07:43:17;;;;;;;23.73;14.20;;;22.10;99.90;;;;;;5065316;28;20753;-81
2022/08/22 07:45:51;;;;;;;21.77;14.40;;;22.20;99.90;;;;;;5065487;28;20032;-82
2022/08/22 07:48:33;;;;;;;22.25;14.43;;;22.40;99.90;;;;;;5064287;28;20086;-81
2022/08/22 07:51:13;;;;;;;23.15;14.82;;;22.50;99.90;;;;;;5065392;28;20025;-81
2022/08/22 07:53:43;;;;;;;27.05;14.73;;;22.60;99.90;;;;;;5065426;28;20028;-83
2022/08/22 07:56:19;;;;;;;19.23;14.07;;;22.50;99.90;;;;;;5066330;28;20028;-83
2022/08/22 07:58:50;;;;;;;26.38;15.27;;;22.60;99.90;;;;;;5065699;28;20032;-82
2022/08/22 08:01:19;;;;;;;17.25;14.75;;;22.70;99.90;;;;;;5065666;28;20515;-81
2022/08/22 08:04:03;;;;;;;18.92;13.93;;;23.00;99.90;;;;;;5066388;28;20039;-81
2022/08/22 08:06:31;;;;;;;17.80;13.65;;;23.30;99.90;;;;;;5065840;28;20109;-82
2022/08/22 08:08:57;;;;;;;23.92;13.90;;;23.40;99.90;;;;;;5067663;28;20017;-81
2022/08/22 08:11:26;;;;;;;17.00;13.43;;;23.50;99.90;;;;;;5066449;28;20036;-80
2022/08/22 08:13:57;;;;;;;20.15;13.77;;;23.60;99.90;;;;;;5066078;28;20401;-81
2022/08/22 08:16:26;;;;;;;22.15;14.77;;;23.70;99.90;;;;;;5065756;28;20025;-81
2022/08/22 08:18:55;;;;;;;25.30;15.13;;;23.80;99.90;;;;;;5065404;28;20029;-81
2022/08/22 08:21:39;;;;;;;25.25;15.85;;;23.80;99.90;;;;;;5067046;28;20028;-81
2022/08/22 08:24:07;;;;;;;22.30;14.73;;;24.00;99.90;;;;;;5066805;28;20033;-81
2022/08/22 08:29:34;;;;;;;20.67;14.52;;;24.40;99.90;;;;;;5066904;28;20067;-81
2022/08/22 08:32:00;;;;;;;19.40;13.23;;;24.50;99.90;;;;;;5064934;28;20021;-81
2022/08/22 08:34:28;;;;;;;17.42;12.90;;;24.70;99.90;;;;;;5066170;28;20039;-82
2022/08/22 08:36:58;;;;;;;19.42;12.73;;;25.50;99.90;;;;;;5065581;28;20029;-81
2022/08/22 08:39:47;;;;;;;23.60;13.23;;;26.60;99.90;;;;;;5065719;28;20020;-81
2022/08/22 08:42:21;;;;;;;16.02;12.35;;;27.60;99.90;;;;;;5069393;28;20024;-81
2022/08/22 08:45:24;;;;;;;15.73;10.65;;;27.80;99.90;;;;;;5069616;28;20556;-82
2022/08/22 08:48:13;;;;;;;17.02;11.40;;;28.70;99.90;;;;;;5068392;28;20028;-82
2022/08/22 08:50:58;;;;;;;25.58;11.93;;;29.10;99.90;;;;;;5070332;28;20025;-83
2022/08/22 08:53:40;;;;;;;14.15;11.18;;;28.70;99.90;;;;;;5069559;28;20083;-82
2022/08/22 08:56:11;;;;;;;17.70;12.27;;;28.40;99.90;;;;;;5069062;28;20021;-82
2022/08/22 08:58:45;;;;;;;16.83;10.95;;;27.90;99.90;;;;;;5069659;28;20086;-83
2022/08/22 09:01:37;;;;;;;14.85;9.57;;;27.60;99.90;;;;;;5068469;28;20066;-83
2022/08/22 09:04:34;;;;;;;19.25;11.10;;;27.30;99.90;;;;;;5068749;28;20082;-82
2022/08/22 09:07:05;;;;;;;;;;;27.20;99.90;;;;;;5070646;28;20034;-82
2022/08/22 09:09:41;;;;;;;20.40;12.13;;;26.90;99.90;;;;;;5069757;28;19904;-81
2022/08/22 09:12:35;;;;;;;20.83;12.70;;;26.60;99.90;;;;;;5070168;28;20028;-82
2022/08/22 09:15:22;;;;;;;25.52;11.88;;;26.20;99.90;;;;;;5069413;28;20039;-81
2022/08/22 09:18:04;;;;;;;16.05;10.63;;;25.90;99.90;;;;;;5069099;28;20032;-81
2022/08/22 09:21:09;;;;;;;15.98;10.57;;;25.90;99.90;;;;;;5087747;28;20059;-82
2022/08/22 09:24:04;;;;;;;18.17;11.48;;;25.60;99.90;;;;;;5088332;28;20062;-81
2022/08/22 09:26:47;;;;;;;13.48;10.27;;;25.50;99.90;;;;;;5084852;28;20067;-81
2022/08/22 09:29:40;;;;;;;18.27;11.75;;;25.30;99.90;;;;;;5067544;28;20082;-81
2022/08/22 09:32:27;;;;;;;17.88;10.65;;;25.20;99.90;;;;;;5068260;28;20031;-80
2022/08/22 09:35:23;;;;;;;14.75;10.07;;;24.90;99.90;;;;;;5068064;28;20067;-82
2022/08/22 09:38:17;;;;;;;15.93;11.57;;;24.80;99.90;;;;;;5048634;28;20192;-82
2022/08/22 09:41:15;;;;;;;20.17;12.98;;;24.60;99.90;;;;;;5062363;28;20049;-82
2022/08/22 09:43:50;;;;;;;19.55;12.40;;;24.60;99.90;;;;;;5068357;28;20067;-82
2022/08/22 09:46:31;;;;;;;28.80;13.57;;;24.40;99.90;;;;;;5068444;28;20032;-83
2022/08/22 09:49:15;;;;;;;24.58;14.90;;;24.40;99.90;;;;;;5069073;28;20166;-81
2022/08/22 09:51:52;;;;;;;24.20;14.45;;;24.40;99.90;;;;;;5073708;28;20021;-81
2022/08/22 09:54:44;;;;;;;27.23;14.40;;;24.30;99.90;;;;;;5060532;28;20044;-82
2022/08/22 09:57:37;;;;;;;21.23;15.68;;;24.30;99.90;;;;;;5058393;28;20097;-83
2022/08/22 10:00:17;;;;;;;19.75;15.35;;;24.30;99.90;;;;;;5066964;28;20296;-83
2022/08/22 10:02:49;;;;;;;19.60;14.30;;;24.50;99.90;;;;;;5068233;28;20036;-81
2022/08/22 10:05:37;;;;;;;23.85;15.52;;;24.50;99.90;;;;;;5067723;28;20070;-82
2022/08/22 10:08:12;;;;;;;20.80;13.73;;;24.70;99.90;;;;;;5067783;28;20034;-82
2022/08/22 10:10:50;;;;;;;25.27;14.53;;;24.70;99.90;;;;;;5069072;28;20024;-82
2022/08/22 10:13:24;;;;;;;21.48;14.85;;;24.80;99.90;;;;;;5067417;28;20078;-82
2022/08/22 10:16:16;;;;;;;24.48;13.40;;;24.70;99.90;;;;;;5066945;28;20501;-82
2022/08/22 10:19:06;;;;;;;19.48;12.88;;;24.70;99.90;;;;;;5065753;28;20036;-83
2022/08/22 10:22:10;;;;;;;25.70;13.75;;;24.70;99.90;;;;;;5067273;28;20025;-82
2022/08/22 10:24:51;;;;;;;22.58;13.32;;;25.00;99.90;;;;;;5066925;28;20036;-81
2022/08/22 10:27:32;;;;;;;23.52;14.48;;;25.00;99.90;;;;;;5067583;28;20504;-83
2022/08/22 10:30:25;;;;;;;27.02;14.02;;;25.00;99.90;;;;;;5068450;28;20049;-82
2022/08/22 10:32:58;;;;;;;26.38;13.27;;;25.10;99.90;;;;;;5066977;28;20492;-82
2022/08/22 10:35:27;;;;;;;27.77;13.70;;;25.00;99.90;;;;;;5067603;28;20028;-82
2022/08/22 10:38:26;;;;;;;35.60;13.23;;;25.10;99.90;;;;;;5067539;28;20030;-82
2022/08/22 10:41:01;;;;;;;24.50;12.93;;;25.30;99.90;;;;;;5067000;28;20028;-83
2022/08/22 10:43:54;;;;;;;22.05;12.07;;;25.30;99.90;;;;;;5068949;28;20032;-82
2022/08/22 10:46:35;;;;;;;27.88;13.63;;;25.40;99.90;;;;;;5077569;28;20115;-82
2022/08/22 10:49:11;;;;;;;18.80;11.70;;;25.60;99.90;;;;;;5088694;28;20051;-83
2022/08/22 10:51:50;;;;;;;24.15;11.32;;;25.80;99.90;;;;;;5087466;28;20032;-83
2022/08/22 10:54:16;;;;;;;18.27;10.65;;;25.90;99.90;;;;;;5088569;28;20032;-83
2022/08/22 10:56:53;;;;;;;18.65;10.80;;;26.10;99.90;;;;;;5069992;28;20032;-81
2022/08/22 10:59:33;;;;;;;21.85;10.18;;;26.30;99.90;;;;;;5067386;28;20024;-83
2022/08/22 11:02:40;;;;;;;15.05;10.25;;;26.50;99.90;;;;;;5066889;28;20124;-81
2022/08/22 11:05:29;;;;;;;18.25;10.57;;;26.80;99.90;;;;;;5063142;28;20421;-81
2022/08/22 11:08:22;;;;;;;17.10;10.90;;;26.90;99.90;;;;;;5078406;28;20568;-83
2022/08/22 11:11:07;;;;;;;18.75;10.77;;;26.90;99.90;;;;;;5088540;28;20027;-83
2022/08/22 11:14:00;;;;;;;19.23;9.85;;;27.00;99.90;;;;;;5087503;28;20086;-82
2022/08/22 11:16:55;;;;;;;18.13;11.00;;;27.20;99.90;;;;;;5071159;28;20031;-82
2022/08/22 11:19:40;;;;;;;18.98;10.77;;;27.40;99.90;;;;;;5050152;28;20036;-81
2022/08/22 11:22:17;;;;;;;18.03;9.17;;;27.60;99.90;;;;;;5067938;28;20594;-82
2022/08/22 11:25:11;;;;;;;18.88;9.20;;;27.80;99.90;;;;;;5068223;28;20266;-81
2022/08/22 11:27:55;;;;;;;15.15;9.05;;;27.70;99.90;;;;;;5067958;28;20031;-84
2022/08/22 11:30:49;;;;;;;20.75;12.18;;;27.50;99.90;;;;;;5066752;28;20055;-82
2022/08/22 11:33:27;;;;;;;19.30;9.38;;;27.50;99.90;;;;;;5066857;28;20040;-82
2022/08/22 11:36:05;;;;;;;13.15;8.45;;;27.40;99.90;;;;;;5066907;28;20652;-82
2022/08/22 11:38:52;;;;;;;13.05;9.25;;;27.30;99.90;;;;;;5068209;28;20254;-83
2022/08/22 11:41:23;;;;;;;;;;;27.30;99.90;;;;;;5068471;28;20035;-83
2022/08/22 11:44:09;;;;;;;20.40;10.55;;;27.30;99.90;;;;;;5067132;28;20361;-82
2022/08/22 11:46:36;;;;;;;;;;;27.30;99.90;;;;;;5067259;28;20032;-83
2022/08/22 11:49:05;;;;;;;17.15;11.15;;;27.30;99.90;;;;;;5068018;28;20049;-84
2022/08/22 11:51:43;;;;;;;16.77;12.23;;;27.30;99.90;;;;;;5067132;28;20621;-83
2022/08/22 11:54:26;;;;;;;18.80;12.68;;;27.20;99.90;;;;;;5067341;28;20036;-82
2022/08/22 11:57:42;;;;;;;17.80;10.50;;;26.90;99.90;;;;;;5066851;28;20054;-83
2022/08/22 12:00:17;;;;;;;14.52;8.20;;;26.70;99.90;;;;;;5048991;28;20036;-83
2022/08/22 12:03:15;;;;;;;22.03;7.77;;;26.70;99.90;;;;;;5065862;28;20035;-83
2022/08/22 12:05:49;;;;;;;13.68;7.97;;;26.70;99.90;;;;;;5060796;28;20127;-84
2022/08/22 12:08:27;;;;;;;17.98;9.27;;;26.60;99.90;;;;;;5072355;28;20028;-83
2022/08/22 12:11:24;;;;;;;21.10;8.55;;;26.90;99.90;;;;;;5072299;28;20088;-83
2022/08/22 12:13:54;;;;;;;;;;;27.00;99.90;;;;;;5072400;28;20039;-83
2022/08/22 12:16:50;;;;;;;12.57;8.10;;;26.80;99.90;;;;;;5067356;28;20304;-83
2022/08/22 12:19:32;;;;;;;12.40;8.15;;;26.80;99.90;;;;;;5067155;28;20505;-83
2022/08/22 12:22:10;;;;;;;13.50;7.43;;;26.40;99.90;;;;;;5066308;28;20386;-83
2022/08/22 12:25:08;;;;;;;14.27;7.78;;;26.30;99.90;;;;;;5066383;28;20033;-81
2022/08/22 12:27:48;;;;;;;13.60;7.68;;;26.20;99.90;;;;;;5051072;28;20040;-84
2022/08/22 12:30:28;;;;;;;14.05;8.27;;;26.30;99.90;;;;;;5065773;28;20159;-82
2022/08/22 12:33:31;;;;;;;16.38;8.30;;;26.40;99.90;;;;;;5066069;28;20173;-83
2022/08/22 12:36:18;;;;;;;11.05;7.80;;;26.50;99.90;;;;;;5067516;28;20056;-83
2022/08/22 12:39:17;;;;;;;14.30;8.60;;;26.60;99.90;;;;;;5067701;28;20036;-81
2022/08/22 12:42:10;;;;;;;14.73;9.40;;;26.70;99.90;;;;;;5066434;28;20281;-82
2022/08/22 12:45:14;;;;;;;15.57;9.30;;;26.80;99.90;;;;;;5065741;28;20624;-83
2022/08/22 12:47:54;;;;;;;20.17;8.73;;;27.10;99.90;;;;;;5066390;28;20082;-83
2022/08/22 12:50:35;;;;;;;18.88;7.57;;;27.40;99.90;;;;;;5066371;28;20064;-83
2022/08/22 12:53:31;;;;;;;16.95;8.40;;;27.60;99.90;;;;;;5065890;28;20656;-82
2022/08/22 12:56:08;;;;;;;10.32;5.70;;;27.80;99.90;;;;;;5067387;28;20034;-82
2022/08/22 12:58:49;;;;;;;11.73;6.95;;;28.00;99.90;;;;;;5065045;28;20044;-83
2022/08/22 13:01:15;;;;;;;12.43;6.07;;;28.10;99.90;;;;;;5066364;28;20115;-83
2022/08/22 13:04:12;;;;;;;17.35;6.75;;;27.80;99.90;;;;;;5065277;28;20039;-82
2022/08/22 13:06:41;;;;;;;13.65;7.25;;;27.80;99.90;;;;;;5065687;28;20036;-82
2022/08/22 13:09:27;;;;;;;12.18;6.70;;;27.80;99.90;;;;;;5065575;28;20028;-82
2022/08/22 13:11:59;;;;;;;15.35;6.45;;;27.90;99.90;;;;;;5065533;28;20025;-83
2022/08/22 13:14:27;;;;;;;12.25;6.05;;;28.10;99.90;;;;;;5065294;28;20480;-83
2022/08/22 13:16:57;;;;;;;8.43;5.00;;;28.20;99.90;;;;;;5066091;28;20043;-84
2022/08/22 13:19:28;;;;;;;11.25;5.55;;;28.40;99.90;;;;;;5066869;28;20060;-83
2022/08/22 13:22:08;;;;;;;12.35;5.18;;;28.80;99.90;;;;;;5065524;28;20025;-83
2022/08/22 13:24:47;;;;;;;14.00;5.43;;;28.80;99.20;;;;;;5065751;28;20029;-83
2022/08/22 13:27:31;;;;;;;5.53;4.38;;;28.80;98.80;;;;;;5069707;28;20043;-82
2022/08/22 13:30:12;;;;;;;9.25;5.00;;;28.80;99.50;;;;;;5068526;28;20040;-83
2022/08/22 13:33:08;;;;;;;7.93;4.30;;;28.80;99.00;;;;;;5067864;28;20129;-83
2022/08/22 13:35:53;;;;;;;15.85;4.90;;;28.90;98.70;;;;;;5061043;28;20548;-83
2022/08/22 13:38:21;;;;;;;8.98;4.70;;;29.00;98.20;;;;;;5069433;28;20373;-83
2022/08/22 13:40:49;;;;;;;7.13;4.82;;;29.00;98.40;;;;;;5068330;28;20032;-83
2022/08/22 13:43:22;;;;;;;12.40;5.93;;;29.00;98.70;;;;;;5068830;28;20027;-83
2022/08/22 13:46:00;;;;;;;13.32;4.43;;;29.10;98.30;;;;;;5069907;28;20028;-82
2022/08/22 13:48:44;;;;;;;9.95;4.38;;;29.30;97.90;;;;;;5083844;28;20146;-83
2022/08/22 13:51:20;;;;;;;10.77;4.40;;;29.30;97.30;;;;;;5088663;28;20027;-83
2022/08/22 13:53:56;;;;;;;9.48;4.60;;;29.10;98.20;;;;;;5088669;28;20043;-82
2022/08/22 13:56:39;;;;;;;11.00;5.20;;;29.10;98.10;;;;;;5074140;28;20054;-83